createdAt,value
2023-02-12T00:01:28.669Z,18.97
2023-02-12T00:03:57.088Z,20.00
2023-02-12T00:06:25.225Z,19.20
2023-02-12T00:08:56.474Z,19.43
2023-02-12T00:11:27.391Z,19.40
2023-02-12T00:13:56.552Z,20.07
2023-02-12T00:16:28.515Z,20.43
2023-02-12T00:18:58.836Z,20.40
2023-02-12T00:21:27.224Z,18.67
2023-02-12T00:23:57.329Z,20.43
2023-02-12T00:26:25.565Z,19.23
2023-02-12T00:28:54.577Z,19.93
2023-02-12T00:31:27.121Z,18.70
2023-02-12T00:33:59.712Z,18.90
2023-02-12T00:36:30.676Z,20.10
2023-02-12T00:39:00.734Z,19.13
2023-02-12T00:41:29.656Z,20.37
2023-02-12T00:43:57.615Z,19.73
2023-02-12T00:46:25.447Z,19.00
2023-02-12T00:48:53.266Z,20.77
2023-02-12T00:51:21.699Z,20.13
2023-02-12T00:53:49.489Z,19.57
2023-02-12T00:56:18.710Z,19.93
2023-02-12T00:58:50.034Z,20.90
2023-02-12T01:01:18.791Z,19.67
2023-02-12T01:03:47.598Z,20.30
2023-02-12T01:06:15.615Z,18.50
2023-02-12T01:08:50.488Z,20.87
2023-02-12T01:11:20.706Z,19.02
2023-02-12T01:14:06.610Z,21.00
2023-02-12T01:16:36.471Z,20.90
2023-02-12T01:19:05.126Z,21.47
2023-02-12T01:21:35.058Z,21.20
2023-02-12T01:24:03.041Z,21.23
2023-02-12T01:26:33.099Z,20.53
2023-02-12T01:29:03.876Z,20.67
2023-02-12T01:31:36.616Z,20.47
2023-02-12T01:34:07.780Z,20.03
2023-02-12T01:36:36.203Z,20.37
2023-02-12T01:39:06.104Z,20.10
2023-02-12T01:41:40.208Z,20.47
2023-02-12T01:44:15.988Z,19.87
2023-02-12T01:49:21.690Z,18.93
2023-02-12T01:51:56.396Z,19.60
2023-02-12T01:54:26.519Z,19.57
2023-02-12T01:56:56.213Z,19.77
2023-02-12T01:59:25.005Z,19.83
2023-02-12T02:01:54.722Z,20.50
2023-02-12T02:04:29.093Z,20.40
2023-02-12T02:07:01.236Z,19.03
2023-02-12T02:09:33.441Z,20.23
2023-02-12T02:12:23.212Z,18.60
2023-02-12T02:14:56.810Z,18.90
2023-02-12T02:17:47.574Z,19.87
2023-02-12T02:21:31.211Z,20.10
2023-02-12T02:24:32.773Z,19.33
2023-02-12T02:27:24.655Z,18.73
2023-02-12T02:30:34.486Z,18.73
2023-02-12T02:33:17.629Z,19.53
2023-02-12T02:35:56.254Z,19.30
2023-02-12T02:38:34.534Z,20.10
2023-02-12T02:41:08.477Z,19.83
2023-02-12T02:43:42.702Z,18.83
2023-02-12T02:46:18.459Z,20.07
2023-02-12T02:48:53.701Z,19.33
2023-02-12T02:51:27.610Z,19.33
2023-02-12T02:54:05.306Z,19.77
2023-02-12T02:56:38.110Z,19.40
2023-02-12T02:59:12.472Z,20.53
2023-02-12T03:01:50.901Z,19.83
2023-02-12T03:04:29.533Z,20.13
2023-02-12T03:07:04.787Z,19.90
2023-02-12T03:09:40.305Z,19.88
2023-02-12T03:12:16.538Z,19.05
2023-02-12T03:14:52.072Z,20.10
2023-02-12T03:17:27.931Z,20.65
2023-02-12T03:20:05.477Z,20.53
2023-02-12T03:22:38.843Z,20.30
2023-02-12T03:25:14.672Z,19.97
2023-02-12T03:27:48.101Z,21.10
2023-02-12T03:30:16.758Z,19.90
2023-02-12T03:32:57.201Z,19.33
2023-02-12T03:35:33.243Z,20.30
2023-02-12T03:38:12.610Z,19.73
2023-02-12T03:40:47.296Z,19.33
2023-02-12T03:43:50.665Z,20.00
2023-02-12T03:46:27.386Z,20.20
2023-02-12T03:49:03.775Z,19.40
2023-02-12T03:51:38.490Z,20.60
2023-02-12T03:54:10.589Z,20.10
2023-02-12T03:56:49.042Z,19.67
2023-02-12T03:59:18.028Z,19.87
2023-02-12T04:01:46.290Z,19.87
2023-02-12T04:04:17.199Z,20.33
2023-02-12T04:06:49.276Z,20.57
2023-02-12T04:09:18.069Z,19.20
2023-02-12T04:12:08.089Z,19.73
2023-02-12T04:14:49.944Z,19.67
2023-02-12T04:17:30.472Z,20.23
2023-02-12T04:20:14.500Z,19.70
2023-02-12T04:22:58.392Z,20.13
2023-02-12T04:25:47.770Z,20.10
2023-02-12T04:28:31.724Z,20.10
2023-02-12T04:31:06.880Z,19.33
2023-02-12T04:33:44.875Z,20.15
2023-02-12T04:36:24.051Z,20.50
2023-02-12T04:38:57.602Z,20.47
2023-02-12T04:41:26.949Z,20.70
2023-02-12T04:43:54.824Z,20.40
2023-02-12T04:46:22.794Z,20.73
2023-02-12T04:48:54.733Z,20.73
2023-02-12T04:51:24.114Z,21.33
2023-02-12T04:53:51.941Z,20.50
2023-02-12T04:56:19.659Z,19.57
2023-02-12T04:58:47.537Z,21.37
2023-02-12T05:01:15.714Z,21.20
2023-02-12T05:03:43.534Z,21.87
2023-02-12T05:06:11.385Z,21.70
2023-02-12T05:08:40.482Z,21.37
2023-02-12T05:11:10.108Z,21.50
2023-02-12T05:13:38.505Z,21.60
2023-02-12T05:16:08.276Z,22.17
2023-02-12T05:18:36.338Z,22.87
2023-02-12T05:21:05.910Z,23.10
2023-02-12T05:23:37.944Z,22.43
2023-02-12T05:26:10.682Z,22.17
2023-02-12T05:28:39.557Z,21.53
2023-02-12T05:31:14.123Z,22.37
2023-02-12T05:33:42.754Z,22.00
2023-02-12T05:36:14.766Z,21.87
2023-02-12T05:38:42.771Z,22.57
2023-02-12T05:41:15.220Z,22.20
2023-02-12T05:43:43.666Z,23.17
2023-02-12T05:46:12.790Z,22.67
2023-02-12T05:48:41.056Z,23.30
2023-02-12T05:51:12.502Z,23.63
2023-02-12T05:53:42.174Z,24.13
2023-02-12T05:56:14.736Z,22.53
2023-02-12T05:58:45.670Z,23.33
2023-02-12T06:01:17.703Z,22.23
2023-02-12T06:03:45.992Z,22.67
2023-02-12T06:06:14.726Z,22.10
2023-02-12T06:08:42.733Z,22.87
2023-02-12T06:11:14.666Z,22.47
2023-02-12T06:13:42.672Z,22.33
2023-02-12T06:16:19.806Z,22.60
2023-02-12T06:18:48.315Z,22.00
2023-02-12T06:21:17.442Z,22.60
2023-02-12T06:23:45.553Z,22.33
2023-02-12T06:26:15.294Z,22.57
2023-02-12T06:28:43.364Z,22.17
2023-02-12T06:31:20.337Z,22.90
2023-02-12T06:33:48.318Z,22.77
2023-02-12T06:36:16.403Z,23.53
2023-02-12T06:38:44.826Z,22.83
2023-02-12T06:41:14.494Z,23.70
2023-02-12T06:43:43.126Z,22.33
2023-02-12T06:46:11.762Z,24.17
2023-02-12T06:48:40.114Z,24.37
2023-02-12T06:51:10.649Z,23.53
2023-02-12T06:53:38.681Z,24.13
2023-02-12T06:56:11.614Z,23.47
2023-02-12T06:58:43.449Z,23.20
2023-02-12T07:01:17.679Z,23.13
2023-02-12T07:03:49.769Z,23.87
2023-02-12T07:06:18.444Z,23.63
2023-02-12T07:08:47.003Z,22.57
2023-02-12T07:11:15.169Z,23.23
2023-02-12T07:13:45.718Z,22.27
2023-02-12T07:16:16.417Z,22.00
2023-02-12T07:18:45.451Z,23.00
2023-02-12T07:21:16.097Z,22.73
2023-02-12T07:23:50.833Z,23.13
2023-02-12T07:26:21.624Z,22.88
2023-02-12T07:28:51.530Z,21.93
2023-02-12T07:31:22.711Z,22.97
2023-02-12T07:33:55.786Z,22.93
2023-02-12T07:36:25.973Z,22.47
2023-02-12T07:38:54.677Z,22.67
2023-02-12T07:41:25.547Z,22.40
2023-02-12T07:43:57.459Z,21.97
2023-02-12T07:46:32.465Z,22.70
2023-02-12T07:49:04.313Z,22.50
2023-02-12T07:51:34.866Z,23.00
2023-02-12T07:54:04.037Z,23.33
2023-02-12T07:56:35.353Z,23.27
2023-02-12T07:59:08.478Z,22.90
2023-02-12T08:01:39.477Z,22.17
2023-02-12T08:04:10.882Z,23.37
2023-02-12T08:06:41.917Z,22.27
2023-02-12T08:09:14.748Z,23.80
2023-02-12T08:11:44.123Z,24.00
2023-02-12T08:14:17.964Z,24.07
2023-02-12T08:16:48.322Z,24.63
2023-02-12T08:19:21.689Z,23.63
2023-02-12T08:21:52.200Z,24.73
2023-02-12T08:24:22.038Z,24.13
2023-02-12T08:26:50.861Z,24.90
2023-02-12T08:29:24.015Z,24.00
2023-02-12T08:31:57.329Z,24.37
2023-02-12T08:34:28.088Z,23.43
2023-02-12T08:36:57.263Z,24.63
2023-02-12T08:39:28.690Z,23.47
2023-02-12T08:41:58.934Z,23.87
2023-02-12T08:44:28.935Z,22.80
2023-02-12T08:46:56.763Z,22.87
2023-02-12T08:49:27.522Z,23.27
2023-02-12T08:51:58.655Z,24.10
2023-02-12T08:54:29.316Z,23.00
2023-02-12T08:56:59.239Z,22.90
2023-02-12T08:59:29.231Z,23.63
2023-02-12T09:01:57.182Z,22.13
2023-02-12T09:04:28.249Z,22.00
2023-02-12T09:06:56.235Z,22.43
2023-02-12T09:09:24.517Z,22.03
2023-02-12T09:11:52.392Z,21.77
2023-02-12T09:14:24.306Z,20.03
2023-02-12T09:16:54.794Z,19.80
2023-02-12T09:19:23.330Z,19.83
2023-02-12T09:21:55.469Z,18.77
2023-02-12T09:24:24.547Z,19.87
2023-02-12T09:26:52.452Z,20.00
2023-02-12T09:29:20.225Z,18.97
2023-02-12T09:31:48.218Z,19.30
2023-02-12T09:34:17.556Z,18.97
2023-02-12T09:36:45.335Z,19.50
2023-02-12T09:39:13.266Z,18.57
2023-02-12T09:42:12.208Z,19.00
2023-02-12T09:44:47.328Z,18.37
2023-02-12T09:47:24.103Z,16.88
2023-02-12T09:50:17.533Z,18.80
2023-02-12T09:52:46.174Z,16.93
2023-02-12T09:55:17.784Z,16.17
2023-02-12T09:57:46.810Z,15.73
2023-02-12T10:00:21.909Z,16.23
2023-02-12T10:02:53.472Z,14.95
2023-02-12T10:05:32.188Z,15.10
2023-02-12T10:08:31.823Z,12.07
2023-02-12T10:11:24.184Z,14.27
2023-02-12T10:14:08.444Z,15.10
2023-02-12T10:16:49.889Z,14.73
2023-02-12T10:19:38.678Z,15.57
2023-02-12T10:22:22.574Z,15.30
2023-02-12T10:25:08.892Z,13.30
2023-02-12T10:27:43.348Z,13.13
2023-02-12T10:30:21.262Z,13.43
2023-02-12T10:32:58.807Z,13.17
2023-02-12T10:35:27.525Z,13.47
2023-02-12T10:38:05.038Z,13.87
2023-02-12T10:40:38.348Z,14.03
2023-02-12T10:43:06.792Z,13.47
2023-02-12T10:45:40.171Z,13.17
2023-02-12T10:48:13.590Z,13.80
2023-02-12T10:50:57.682Z,12.93
2023-02-12T10:53:33.789Z,14.07
2023-02-12T10:56:19.021Z,13.97
2023-02-12T10:58:57.223Z,13.65
2023-02-12T11:01:28.596Z,13.07
2023-02-12T11:03:59.086Z,12.60
2023-02-12T11:06:31.800Z,12.53
2023-02-12T11:09:00.993Z,12.70
2023-02-12T11:11:37.167Z,12.90
2023-02-12T11:14:17.948Z,13.00
2023-02-12T11:16:53.755Z,13.93
2023-02-12T11:19:26.757Z,13.63
2023-02-12T11:22:10.090Z,13.53
2023-02-12T11:24:39.270Z,14.23
2023-02-12T11:27:25.857Z,14.47
2023-02-12T11:30:15.835Z,13.83
2023-02-12T11:32:44.412Z,12.93
2023-02-12T11:35:18.688Z,13.70
2023-02-12T11:37:47.531Z,13.03
2023-02-12T11:40:22.529Z,13.00
2023-02-12T11:42:55.100Z,12.05
2023-02-12T11:45:32.146Z,11.80
2023-02-12T11:48:01.152Z,9.73
2023-02-12T11:50:32.326Z,10.00
2023-02-12T11:53:08.062Z,10.57
2023-02-12T11:55:41.407Z,10.70
2023-02-12T11:58:16.998Z,10.47
2023-02-12T12:03:26.523Z,8.53
2023-02-12T12:06:04.183Z,8.60
2023-02-12T12:08:42.083Z,9.73
2023-02-12T12:11:19.448Z,9.97
2023-02-12T12:13:58.038Z,9.23
2023-02-12T12:16:54.584Z,9.17
2023-02-12T12:19:48.561Z,8.10
2023-02-12T12:22:27.953Z,8.45
2023-02-12T12:25:06.366Z,7.30
2023-02-12T12:28:02.813Z,8.83
2023-02-12T12:33:20.092Z,7.70
2023-02-12T12:36:18.681Z,9.27
2023-02-12T12:39:03.447Z,8.15
2023-02-12T12:41:49.977Z,9.15
2023-02-12T12:44:40.933Z,6.85
2023-02-12T12:47:26.010Z,6.53
2023-02-12T12:50:05.473Z,7.40
2023-02-12T12:53:14.094Z,6.00
2023-02-12T12:56:01.156Z,5.95
2023-02-12T12:58:49.153Z,6.97
2023-02-12T13:02:00.320Z,6.97
2023-02-12T13:05:23.015Z,4.22
2023-02-12T13:08:04.794Z,4.67
2023-02-12T13:10:38.287Z,5.67
2023-02-12T13:13:29.673Z,5.80
2023-02-12T13:16:11.565Z,5.67
2023-02-12T13:18:56.065Z,4.73
2023-02-12T13:21:41.799Z,4.30
2023-02-12T13:24:25.979Z,4.88
2023-02-12T13:26:58.530Z,5.68
2023-02-12T13:29:34.257Z,5.10
2023-02-12T13:32:13.052Z,6.07
2023-02-12T13:34:44.646Z,6.50
2023-02-12T13:37:20.377Z,6.93
2023-02-12T13:39:51.407Z,7.00
2023-02-12T13:42:45.741Z,6.68
2023-02-12T13:45:31.544Z,6.80
2023-02-12T13:48:20.332Z,6.75
2023-02-12T13:51:02.292Z,6.70
2023-02-12T13:53:52.782Z,6.53
2023-02-12T13:56:40.454Z,6.65
2023-02-12T13:59:39.913Z,6.75
2023-02-12T14:02:43.181Z,6.43
2023-02-12T14:05:24.671Z,5.97
2023-02-12T14:07:58.595Z,5.80
2023-02-12T14:10:32.704Z,6.22
2023-02-12T14:13:18.026Z,6.85
2023-02-12T14:15:51.527Z,5.88
2023-02-12T14:18:33.777Z,6.20
2023-02-12T14:21:35.345Z,6.80
2023-02-12T14:24:51.990Z,6.73
2023-02-12T14:27:43.327Z,6.15
2023-02-12T14:30:34.928Z,7.05
2023-02-12T14:33:22.655Z,6.57
2023-02-12T14:36:18.052Z,6.93
2023-02-12T14:39:04.545Z,7.23
2023-02-12T14:41:37.786Z,7.03
2023-02-12T14:44:47.297Z,6.50
2023-02-12T14:47:52.044Z,7.47
2023-02-12T14:50:25.345Z,7.30
2023-02-12T14:53:05.970Z,8.00
2023-02-12T14:55:36.001Z,7.57
2023-02-12T14:58:19.624Z,7.37
2023-02-12T15:00:50.694Z,7.40
2023-02-12T15:03:27.974Z,8.30
2023-02-12T15:06:05.043Z,7.53
2023-02-12T15:08:44.649Z,8.30
2023-02-12T15:11:35.615Z,8.20
2023-02-12T15:14:15.273Z,8.50
2023-02-12T15:16:56.024Z,8.40
2023-02-12T15:19:40.693Z,8.27
2023-02-12T15:22:26.914Z,8.60
2023-02-12T15:25:16.362Z,9.20
2023-02-12T15:27:47.920Z,9.27
2023-02-12T15:30:26.238Z,8.80
2023-02-12T15:32:57.206Z,8.70
2023-02-12T15:35:28.549Z,8.57
2023-02-12T15:38:00.158Z,8.60
2023-02-12T15:40:29.375Z,9.33
2023-02-12T15:43:01.046Z,9.60
2023-02-12T15:45:32.578Z,9.03
2023-02-12T15:48:12.636Z,8.63
2023-02-12T15:50:53.815Z,9.50
2023-02-12T15:53:24.577Z,10.20
2023-02-12T15:55:52.956Z,10.33
2023-02-12T15:58:26.837Z,9.47
2023-02-12T16:01:02.626Z,9.50
2023-02-12T16:03:34.591Z,9.47
2023-02-12T16:06:06.420Z,9.97
2023-02-12T16:08:36.153Z,9.70
2023-02-12T16:11:14.049Z,9.63
2023-02-12T16:13:47.436Z,10.20
2023-02-12T16:16:24.582Z,10.73
2023-02-12T16:19:18.803Z,9.93
2023-02-12T16:21:51.902Z,10.03
2023-02-12T16:24:27.660Z,14.73
2023-02-12T16:26:57.567Z,11.27
2023-02-12T16:29:25.936Z,12.53
2023-02-12T16:31:59.968Z,12.90
2023-02-12T16:34:35.270Z,11.70
2023-02-12T16:37:41.250Z,11.00
2023-02-12T16:40:27.759Z,11.05
2023-02-12T16:43:24.618Z,12.07
2023-02-12T16:46:04.890Z,12.23
2023-02-12T16:48:42.158Z,11.83
2023-02-12T16:51:24.264Z,11.77
2023-02-12T16:53:54.987Z,14.53
2023-02-12T16:56:26.660Z,15.67
2023-02-12T16:58:58.258Z,14.77
2023-02-12T17:01:29.544Z,23.60
2023-02-12T17:04:04.070Z,18.13
2023-02-12T17:06:33.171Z,16.08
2023-02-12T17:09:01.172Z,18.17
2023-02-12T17:11:29.525Z,19.87
2023-02-12T17:13:57.676Z,19.07
2023-02-12T17:16:30.724Z,20.77
2023-02-12T17:19:00.982Z,17.40
2023-02-12T17:21:37.839Z,15.77
2023-02-12T17:24:07.810Z,16.40
2023-02-12T17:26:35.829Z,16.77
2023-02-12T17:29:05.290Z,16.00
2023-02-12T17:31:34.445Z,16.10
2023-02-12T17:34:05.705Z,16.43
2023-02-12T17:36:35.366Z,15.77
2023-02-12T17:39:07.480Z,16.00
2023-02-12T17:41:35.910Z,14.90
2023-02-12T17:44:03.969Z,15.47
2023-02-12T17:46:32.020Z,16.40
2023-02-12T17:49:00.011Z,16.57
2023-02-12T17:51:29.315Z,16.13
2023-02-12T17:53:57.377Z,14.70
2023-02-12T17:56:25.776Z,13.87
2023-02-12T17:58:54.135Z,13.03
2023-02-12T18:01:23.720Z,13.30
2023-02-12T18:03:54.585Z,12.43
2023-02-12T18:06:27.174Z,12.30
2023-02-12T18:08:57.513Z,12.83
2023-02-12T18:11:27.639Z,12.70
2023-02-12T18:13:57.945Z,12.23
2023-02-12T18:16:30.956Z,13.47
2023-02-12T18:19:00.642Z,13.33
2023-02-12T18:21:28.613Z,13.40
2023-02-12T18:23:57.914Z,13.03
2023-02-12T18:26:25.842Z,13.53
2023-02-12T18:28:54.189Z,13.57
2023-02-12T18:31:22.341Z,13.73
2023-02-12T18:33:51.073Z,13.23
2023-02-12T18:36:21.543Z,14.70
2023-02-12T18:38:51.768Z,15.00
2023-02-12T18:41:25.054Z,14.57
2023-02-12T18:43:54.706Z,13.73
2023-02-12T18:46:25.683Z,13.43
2023-02-12T18:48:54.741Z,14.37
2023-02-12T18:51:26.130Z,13.67
2023-02-12T18:53:56.207Z,14.33
2023-02-12T18:56:25.514Z,14.13
2023-02-12T18:58:56.687Z,14.40
2023-02-12T19:01:26.894Z,14.70
2023-02-12T19:03:59.009Z,14.60
2023-02-12T19:06:27.532Z,15.53
2023-02-12T19:08:56.660Z,17.07
2023-02-12T19:11:27.267Z,16.90
2023-02-12T19:13:55.713Z,16.30
2023-02-12T19:16:25.032Z,16.13
2023-02-12T19:18:58.336Z,16.07
2023-02-12T19:21:26.624Z,16.80
2023-02-12T19:23:59.426Z,16.53
2023-02-12T19:26:30.681Z,16.23
2023-02-12T19:28:59.723Z,15.30
2023-02-12T19:31:30.947Z,15.37
2023-02-12T19:34:06.547Z,15.23
2023-02-12T19:39:06.199Z,15.00
2023-02-12T19:41:41.456Z,15.23
2023-02-12T19:44:13.803Z,14.73
2023-02-12T19:46:42.363Z,15.73
2023-02-12T19:49:16.333Z,16.17
2023-02-12T19:51:45.034Z,17.07
2023-02-12T19:54:16.040Z,18.20
2023-02-12T19:56:45.856Z,18.73
2023-02-12T19:59:17.531Z,17.37
2023-02-12T20:01:46.621Z,19.10
2023-02-12T20:04:17.033Z,19.50
2023-02-12T20:06:47.223Z,19.90
2023-02-12T20:09:15.310Z,20.13
2023-02-12T20:11:44.628Z,19.67
2023-02-12T20:14:13.805Z,17.43
2023-02-12T20:16:43.716Z,17.80
2023-02-12T20:19:15.780Z,17.97
2023-02-12T20:21:44.855Z,16.17
2023-02-12T20:24:12.746Z,17.03
2023-02-12T20:26:40.763Z,16.33
2023-02-12T20:29:10.007Z,17.13
2023-02-12T20:31:38.288Z,19.17
2023-02-12T20:34:09.162Z,17.57
2023-02-12T20:36:40.694Z,17.30
2023-02-12T20:39:11.336Z,17.37
2023-02-12T20:41:40.672Z,17.67
2023-02-12T20:44:14.322Z,18.53
2023-02-12T20:46:45.060Z,17.70
2023-02-12T20:49:14.761Z,18.60
2023-02-12T20:51:43.823Z,19.50
2023-02-12T20:54:12.971Z,19.53
2023-02-12T20:56:40.845Z,19.07
2023-02-12T20:59:12.116Z,18.40
2023-02-12T21:01:41.860Z,18.80
2023-02-12T21:04:16.765Z,18.67
2023-02-12T21:06:45.732Z,17.02
2023-02-12T21:09:14.477Z,17.50
2023-02-12T21:11:45.813Z,17.50
2023-02-12T21:14:24.568Z,17.50
2023-02-12T21:16:56.566Z,17.00
2023-02-12T21:19:25.974Z,16.90
2023-02-12T21:21:54.284Z,16.90
2023-02-12T21:24:24.306Z,16.70
2023-02-12T21:26:54.287Z,16.57
2023-02-12T21:29:25.992Z,16.63
2023-02-12T21:31:55.051Z,15.93
2023-02-12T21:34:23.875Z,16.70
2023-02-12T21:36:55.268Z,16.03
2023-02-12T21:39:28.145Z,15.57
2023-02-12T21:42:02.973Z,15.83
2023-02-12T21:44:35.551Z,15.65
2023-02-12T21:47:04.334Z,14.50
2023-02-12T21:49:32.324Z,15.87
2023-02-12T21:52:03.154Z,15.83
2023-02-12T21:54:31.329Z,16.00
2023-02-12T21:57:00.153Z,15.97
2023-02-12T21:59:30.133Z,15.93
2023-02-12T22:02:01.723Z,15.70
2023-02-12T22:04:29.844Z,17.07
2023-02-12T22:06:59.590Z,16.30
2023-02-12T22:09:27.430Z,16.97
2023-02-12T22:11:55.436Z,17.00
2023-02-12T22:14:23.307Z,17.23
2023-02-12T22:16:51.820Z,17.63
2023-02-12T22:19:21.090Z,17.00
2023-02-12T22:21:54.077Z,17.53
2023-02-12T22:24:22.108Z,17.33
2023-02-12T22:26:50.077Z,17.27
2023-02-12T22:29:18.139Z,17.07
2023-02-12T22:31:46.859Z,17.90
2023-02-12T22:34:18.597Z,17.73
2023-02-12T22:36:49.651Z,16.93
2023-02-12T22:39:17.814Z,17.17
2023-02-12T22:41:46.137Z,17.27
2023-02-12T22:44:15.816Z,16.97
2023-02-12T22:46:44.705Z,17.50
2023-02-12T22:49:12.932Z,17.53
2023-02-12T22:51:41.988Z,18.57
2023-02-12T22:54:15.048Z,18.40
2023-02-12T22:56:43.954Z,17.83
2023-02-12T22:59:12.985Z,19.53
2023-02-12T23:01:42.169Z,18.30
2023-02-12T23:04:14.657Z,17.10
2023-02-12T23:06:43.406Z,18.40
2023-02-12T23:09:18.899Z,18.87
2023-02-12T23:11:48.287Z,17.58
2023-02-12T23:14:16.428Z,18.73
2023-02-12T23:16:45.217Z,18.17
2023-02-12T23:19:14.120Z,18.63
2023-02-12T23:21:43.364Z,19.00
2023-02-12T23:24:15.108Z,18.80
2023-02-12T23:26:43.760Z,18.17
2023-02-12T23:29:11.657Z,18.87
2023-02-12T23:31:39.929Z,19.13
2023-02-12T23:34:08.232Z,19.23
2023-02-12T23:36:36.202Z,18.83
2023-02-12T23:39:05.743Z,18.43
2023-02-12T23:41:35.204Z,18.93
2023-02-12T23:44:03.681Z,17.47
2023-02-12T23:46:31.720Z,17.97
2023-02-12T23:48:59.618Z,17.80
2023-02-12T23:51:27.998Z,17.87
2023-02-12T23:53:56.103Z,17.47
2023-02-12T23:56:24.218Z,17.97
2023-02-12T23:58:56.622Z,17.10
